Time;durP1;ratioP1;P1;durP2;ratioP2;P2;SDS_P1;SDS_P2;PMS_P1;PMS_P2;Temp;Humidity;BMP_temperature;BMP_pressure;BME280_temperature;BME280_humidity;BME280_pressure;Samples;Min_cycle;Max_cycle;Signal;HPM_P1;HPM_P2
2022/01/23 00:00:05;;;;;;;74.72;34.17;;;;;;;5.19;87.40;103067.66;5047027;28;20132;-68
2022/01/23 00:02:37;;;;;;;75.20;35.05;;;;;;;5.22;88.05;103059.66;5052098;28;20041;-67
2022/01/23 00:05:07;;;;;;;75.90;34.95;;;;;;;5.28;88.01;103067.28;5051650;28;20465;-67
2022/01/23 00:07:35;;;;;;;73.65;34.00;;;;;;;5.28;87.44;103069.91;5052132;28;20048;-67
2022/01/23 00:10:04;;;;;;;82.57;35.85;;;;;;;5.17;87.28;103074.75;5052045;28;20409;-67
2022/01/23 00:12:37;;;;;;;81.35;35.13;;;;;;;5.00;87.90;103070.16;5053106;28;20103;-67
2022/01/23 00:17:50;;;;;;;68.07;34.53;;;;;;;5.12;87.21;103063.56;5052490;28;20052;-67
2022/01/23 00:20:17;;;;;;;81.43;35.72;;;;;;;5.15;87.67;103069.56;5048648;28;20048;-67
2022/01/23 00:22:48;;;;;;;73.43;34.50;;;;;;;5.25;87.83;103064.78;5051858;28;20404;-67
2022/01/23 00:30:51;;;;;;;81.55;35.50;;;;;;;5.15;88.08;103066.94;5050988;28;20049;-67
2022/01/23 00:33:17;;;;;;;77.35;34.65;;;;;;;5.10;87.61;103065.41;5051609;28;20087;-69
2022/01/23 00:35:46;;;;;;;78.05;34.10;;;;;;;5.11;87.33;103065.34;5052654;28;20040;-67
2022/01/23 00:38:14;;;;;;;80.30;35.00;;;;;;;5.03;87.42;103050.78;5052821;28;20037;-67
2022/01/23 00:40:43;;;;;;;80.47;34.72;;;;;;;5.12;87.75;103059.16;5079342;28;20489;-67
2022/01/23 00:43:26;;;;;;;76.70;35.63;;;;;;;5.19;86.88;103063.25;5052795;28;20033;-67
2022/01/23 00:46:09;;;;;;;73.03;35.45;;;;;;;5.05;88.00;103051.56;5035138;28;20562;-67
2022/01/23 00:48:40;;;;;;;79.82;35.58;;;;;;;5.11;87.42;103048.69;5052567;28;20064;-67
2022/01/23 00:51:07;;;;;;;76.30;36.13;;;;;;;5.14;88.04;103046.78;5051583;28;20049;-69
2022/01/23 00:53:34;;;;;;;67.05;33.63;;;;;;;5.23;87.13;103050.81;5052325;28;20501;-68
2022/01/23 00:56:02;;;;;;;82.05;34.90;;;;;;;5.31;86.64;103050.50;5052264;28;20102;-68
2022/01/23 00:58:28;;;;;;;76.47;36.13;;;;;;;5.27;86.47;103044.50;5051388;28;20459;-68
2022/01/23 01:00:55;;;;;;;71.15;34.55;;;;;;;5.32;86.75;103036.44;5051411;28;20057;-68
2022/01/23 01:03:22;;;;;;;69.03;34.55;;;;;;;5.11;87.30;103040.78;5050426;28;20043;-68
2022/01/23 01:05:49;;;;;;;73.53;35.03;;;;;;;5.04;87.69;103042.81;5052427;28;20049;-68
2022/01/23 01:08:16;;;;;;;76.75;35.75;;;;;;;4.86;88.34;103043.53;5051047;28;20045;-68
2022/01/23 01:10:55;;;;;;;75.20;35.63;;;;;;;4.87;88.62;103042.63;5051000;28;20057;-67
2022/01/23 01:13:23;;;;;;;77.40;36.53;;;;;;;4.80;88.65;103050.78;5052328;28;20041;-68
2022/01/23 01:16:12;;;;;;;78.95;36.47;;;;;;;4.99;89.63;103040.38;5034778;28;20041;-68
2022/01/23 01:32:55;;;;;;;83.28;36.97;;;;;;;5.39;87.02;103051.91;5044555;28;20049;-68
2022/01/23 01:35:26;;;;;;;77.13;36.92;;;;;;;5.21;87.77;103050.03;5053131;28;20051;-68
2022/01/23 01:37:53;;;;;;;79.03;37.17;;;;;;;5.14;88.04;103041.53;5054655;28;20041;-67
2022/01/23 01:40:22;;;;;;;73.93;37.08;;;;;;;5.01;88.10;103045.56;5055607;28;20384;-67
2022/01/23 01:42:49;;;;;;;76.78;36.83;;;;;;;5.05;88.31;103046.31;5054974;28;20053;-68
2022/01/23 01:45:22;;;;;;;70.28;35.60;;;;;;;5.06;88.18;103053.25;5054841;28;20099;-68
2022/01/23 01:47:55;;;;;;;76.82;35.08;;;;;;;4.93;88.72;103048.53;5055740;28;20044;-68
2022/01/23 01:50:22;;;;;;;78.95;35.60;;;;;;;4.81;89.21;103044.59;5056067;28;20124;-68
2022/01/23 01:52:50;;;;;;;75.68;34.72;;;;;;;4.93;89.31;103038.00;5054393;28;20041;-68
2022/01/23 01:55:26;;;;;;;76.57;35.83;;;;;;;5.29;87.29;103042.66;5086926;28;20047;-68
2022/01/23 01:58:02;;;;;;;84.40;36.03;;;;;;;5.22;87.45;103041.22;5024381;28;20045;-67
2022/01/23 02:00:56;;;;;;;76.10;33.65;;;;;;;5.08;88.61;103036.53;5055283;28;20045;-68
2022/01/23 02:08:18;;;;;;;79.30;34.63;;;;;;;5.04;88.99;103034.06;5053148;28;20047;-68
2022/01/23 02:09:18;;;;;;;68.35;32.30;;;;;;;4.86;88.96;103031.25;5055256;28;20045;-68
2022/01/23 02:14:44;;;;;;;65.70;33.45;;;;;;;4.98;88.81;103022.88;5083626;28;20135;-68
2022/01/23 02:17:41;;;;;;;74.43;34.40;;;;;;;5.25;87.79;103009.50;5055160;28;20041;-68
2022/01/23 02:51:27;;;;;;;67.82;34.67;;;;;;;4.87;88.75;103034.75;5054628;28;20079;-68
2022/01/23 02:56:46;;;;;;;78.60;36.55;;;;;;;4.92;87.97;103014.38;5050748;28;20124;-68
2022/01/23 02:59:32;;;;;;;87.22;37.20;;;;;;;4.87;88.27;103024.22;5053352;28;20501;-68
2022/01/23 03:02:34;;;;;;;87.25;39.33;;;;;;;4.85;88.49;103029.53;5049144;28;20051;-68
2022/01/23 03:05:35;;;;;;;87.15;40.92;;;;;;;4.73;88.28;103028.25;5051532;28;20041;-68
2022/01/23 03:11:02;;;;;;;83.15;40.47;;;;;;;4.99;87.62;103021.09;5053869;28;20127;-68
2022/01/23 03:13:54;;;;;;;81.00;37.33;;;;;;;4.84;88.00;103019.06;5054219;28;20033;-68
2022/01/23 03:25:02;;;;;;;81.00;38.38;;;;;;;4.85;89.06;103034.81;5082366;28;20040;-68
2022/01/23 03:30:26;;;;;;;78.28;36.80;;;;;;;4.93;88.37;103023.97;5048049;28;20048;-68
2022/01/23 03:32:54;;;;;;;79.85;36.25;;;;;;;4.89;88.14;103030.28;5053335;28;20094;-68
2022/01/23 03:35:22;;;;;;;82.53;38.40;;;;;;;4.72;88.97;103039.69;5051562;28;20051;-67
2022/01/23 03:37:49;;;;;;;79.57;36.38;;;;;;;4.82;89.24;103037.56;5053717;28;20100;-68
2022/01/23 03:40:17;;;;;;;79.40;35.70;;;;;;;5.11;87.62;103030.25;5082648;28;20111;-68
2022/01/23 03:42:47;;;;;;;76.18;35.05;;;;;;;4.92;87.99;103041.53;5053955;28;20531;-68
2022/01/23 03:45:44;;;;;;;82.75;34.17;;;;;;;4.86;88.41;103046.16;5052922;28;20053;-68
2022/01/23 03:50:49;;;;;;;76.80;35.00;;;;;;;5.13;87.75;103045.09;5063143;28;20762;-66
2022/01/23 03:53:29;;;;;;;78.93;35.30;;;;;;;5.08;87.15;103044.41;5064366;28;20098;-68
2022/01/23 03:55:56;;;;;;;65.65;33.10;;;;;;;4.93;87.28;103043.25;5051106;28;20045;-68
2022/01/23 03:58:23;;;;;;;70.75;34.20;;;;;;;5.01;88.12;103056.09;5032549;28;20065;-68
2022/01/23 04:00:50;;;;;;;76.78;35.03;;;;;;;4.98;87.82;103049.19;5016501;28;20049;-68
2022/01/23 04:03:19;;;;;;;68.60;33.85;;;;;;;4.91;88.20;103060.88;5029332;28;20500;-68
2022/01/23 04:05:46;;;;;;;71.22;34.50;;;;;;;4.89;88.62;103056.56;5049930;28;20845;-68
2022/01/23 04:08:15;;;;;;;73.38;35.08;;;;;;;4.93;88.76;103056.41;5049514;28;20438;-68
2022/01/23 04:10:46;;;;;;;71.30;34.10;;;;;;;4.92;88.12;103057.31;5049776;28;20037;-68
2022/01/23 04:13:27;;;;;;;75.93;35.63;;;;;;;5.08;87.56;103054.09;5049966;28;20045;-68
2022/01/23 04:46:59;;;;;;;74.25;32.80;;;;;;;4.68;89.36;103058.28;5049065;28;20069;-68
2022/01/23 04:59:55;;;;;;;69.25;32.10;;;;;;;4.83;88.99;103060.31;5064530;28;20041;-68
2022/01/23 05:03:02;;;;;;;61.05;30.40;;;;;;;4.81;88.95;103059.50;5069013;28;20124;-68
2022/01/23 05:05:33;;;;;;;68.00;31.42;;;;;;;4.84;89.02;103058.53;5067879;28;20378;-69
2022/01/23 05:08:19;;;;;;;67.15;31.30;;;;;;;4.86;89.35;103065.47;5069641;28;20072;-68
2022/01/23 05:10:59;;;;;;;70.00;32.13;;;;;;;4.87;89.41;103064.53;5066530;28;20041;-68
2022/01/23 05:13:39;;;;;;;;;;;;;;;4.95;88.65;103069.50;5069450;28;20087;-66
2022/01/23 05:16:06;;;;;;;67.65;30.42;;;;;;;4.95;88.68;103066.88;5069622;28;20410;-69
2022/01/23 05:18:35;;;;;;;66.40;29.92;;;;;;;4.92;88.83;103062.56;5051896;28;20048;-69
2022/01/23 05:21:20;;;;;;;70.05;30.92;;;;;;;4.94;89.00;103062.53;5068292;28;20481;-69
2022/01/23 05:23:47;;;;;;;67.68;31.00;;;;;;;4.93;88.89;103059.03;5067259;28;20075;-69
2022/01/23 05:26:14;;;;;;;67.60;30.77;;;;;;;4.97;88.20;103054.50;5068146;28;20044;-69
2022/01/23 05:28:40;;;;;;;62.17;31.40;;;;;;;5.04;88.49;103055.09;5061826;28;20041;-68
2022/01/23 05:31:07;;;;;;;67.25;31.70;;;;;;;4.95;88.31;103059.84;5069354;28;20439;-68
2022/01/23 05:33:34;;;;;;;65.97;30.83;;;;;;;4.96;88.39;103058.03;5066422;28;20075;-68
2022/01/23 05:36:02;;;;;;;67.82;31.73;;;;;;;4.90;88.91;103059.16;5069316;28;20071;-68
2022/01/23 05:38:29;;;;;;;61.78;29.70;;;;;;;4.91;88.92;103054.75;5068306;28;20563;-68
2022/01/23 05:40:57;;;;;;;67.70;31.05;;;;;;;4.98;88.92;103050.94;5051550;28;20063;-69
2022/01/23 05:43:27;;;;;;;65.40;29.85;;;;;;;4.96;88.73;103061.53;5069086;28;20052;-68
2022/01/23 05:45:54;;;;;;;56.50;28.80;;;;;;;5.01;88.56;103056.09;5069284;28;20124;-68
2022/01/23 05:48:40;;;;;;;64.72;30.25;;;;;;;4.85;89.57;103066.34;5067425;28;20051;-68
2022/01/23 05:51:27;;;;;;;67.75;30.23;;;;;;;4.90;89.00;103064.41;5068545;28;20040;-68
2022/01/23 05:54:14;;;;;;;68.20;31.02;;;;;;;4.92;89.34;103077.50;5068714;28;20043;-69
2022/01/23 05:57:02;;;;;;;67.70;30.48;;;;;;;4.98;88.78;103072.00;5068618;28;20451;-68
2022/01/23 05:59:48;;;;;;;62.85;29.65;;;;;;;4.81;89.20;103084.03;5068713;28;20497;-69
2022/01/23 06:02:15;;;;;;;68.95;30.30;;;;;;;4.86;89.89;103073.34;5058681;28;20044;-68
2022/01/23 06:04:42;;;;;;;67.07;31.70;;;;;;;4.87;89.27;103072.41;5046468;28;20039;-69
2022/01/23 06:07:29;;;;;;;65.57;30.30;;;;;;;4.94;89.20;103073.88;5054787;28;20043;-68
2022/01/23 06:10:04;;;;;;;64.32;31.05;;;;;;;4.99;88.79;103079.84;5055255;28;20423;-69
2022/01/23 06:12:32;;;;;;;65.40;31.20;;;;;;;5.02;88.64;103072.72;5055397;28;20496;-68
2022/01/23 06:14:58;;;;;;;69.63;33.33;;;;;;;5.15;88.03;103069.56;5055398;28;20049;-69
2022/01/23 06:17:25;;;;;;;75.68;31.33;;;;;;;5.09;88.55;103079.47;5037874;28;20049;-69
2022/01/23 06:20:13;;;;;;;65.70;31.55;;;;;;;5.12;88.19;103074.09;5055343;28;20397;-68
2022/01/23 06:23:00;;;;;;;67.28;32.83;;;;;;;5.13;88.18;103078.41;5052105;28;20064;-69
2022/01/23 06:25:43;;;;;;;69.53;32.25;;;;;;;5.03;88.28;103083.19;5054165;28;20045;-69
2022/01/23 06:28:35;;;;;;;68.97;33.17;;;;;;;5.05;88.25;103084.00;5053971;28;20051;-68
2022/01/23 06:31:02;;;;;;;66.28;32.30;;;;;;;4.98;88.64;103088.66;5053232;28;20424;-69
2022/01/23 06:33:29;;;;;;;62.97;32.08;;;;;;;5.01;88.92;103085.03;5055059;28;20056;-68
2022/01/23 06:35:56;;;;;;;77.93;31.63;;;;;;;5.06;88.85;103080.47;5055135;28;20041;-68
2022/01/23 06:38:23;;;;;;;70.78;33.95;;;;;;;5.10;88.31;103081.19;5053915;28;20045;-69
2022/01/23 06:40:50;;;;;;;74.53;33.65;;;;;;;5.05;88.97;103091.88;5053539;28;20033;-68
2022/01/23 06:43:36;;;;;;;67.32;34.38;;;;;;;5.02;88.15;103088.50;5054270;28;20473;-68
2022/01/23 06:46:10;;;;;;;75.00;33.80;;;;;;;5.06;88.19;103090.09;5054710;28;20045;-68
2022/01/23 06:48:37;;;;;;;69.55;33.53;;;;;;;5.05;88.46;103093.66;5054474;28;20048;-68
2022/01/23 06:51:04;;;;;;;74.18;32.20;;;;;;;4.90;88.61;103090.72;5053074;28;20115;-69
2022/01/23 06:53:31;;;;;;;74.68;34.78;;;;;;;4.95;88.46;103094.03;5054624;28;20132;-67
2022/01/23 06:55:57;;;;;;;72.68;34.45;;;;;;;5.02;88.31;103088.50;5054518;28;20413;-67
2022/01/23 06:58:24;;;;;;;71.68;35.53;;;;;;;4.99;88.27;103087.72;5054477;28;20072;-67
2022/01/23 07:00:51;;;;;;;66.65;32.08;;;;;;;4.98;88.04;103096.56;5053375;28;20099;-67
2022/01/23 07:03:21;;;;;;;78.95;34.72;;;;;;;5.01;88.39;103098.19;5052495;28;20040;-67
2022/01/23 07:06:06;;;;;;;76.38;34.95;;;;;;;4.97;88.56;103093.97;5054077;28;20500;-67
2022/01/23 07:08:52;;;;;;;65.70;32.75;;;;;;;4.99;87.69;103103.50;5041560;28;20052;-68
2022/01/23 07:11:30;;;;;;;82.88;33.97;;;;;;;4.86;87.76;103104.03;5054179;28;20063;-67
2022/01/23 07:14:16;;;;;;;75.00;34.72;;;;;;;4.99;87.58;103114.03;5053272;28;20041;-67
2022/01/23 07:16:55;;;;;;;72.13;34.15;;;;;;;4.96;88.11;103114.13;5054033;28;20119;-67
2022/01/23 07:19:31;;;;;;;78.07;34.05;;;;;;;4.90;88.89;103114.38;5036694;28;20627;-67
2022/01/23 07:22:02;;;;;;;75.95;34.00;;;;;;;4.96;88.51;103122.03;5053552;28;20440;-67
2022/01/23 07:24:30;;;;;;;73.57;34.00;;;;;;;4.96;88.42;103118.56;5047799;28;20048;-67
2022/01/23 07:27:00;;;;;;;71.78;34.88;;;;;;;5.00;88.50;103120.13;5053226;28;20052;-67
2022/01/23 07:29:27;;;;;;;80.00;36.20;;;;;;;5.05;88.26;103119.97;5054435;28;20400;-67
2022/01/23 07:31:57;;;;;;;74.90;34.67;;;;;;;5.02;88.57;103126.22;5050503;28;20404;-67
2022/01/23 07:34:26;;;;;;;80.68;34.92;;;;;;;4.98;87.89;103125.50;5053937;28;20049;-67
2022/01/23 07:36:53;;;;;;;77.18;35.78;;;;;;;5.00;88.42;103123.66;5052763;28;20049;-67
2022/01/23 07:39:36;;;;;;;77.78;35.97;;;;;;;5.06;88.17;103125.19;5053906;28;20041;-67
2022/01/23 07:42:08;;;;;;;77.85;36.53;;;;;;;5.08;88.27;103127.75;5041987;28;20048;-67
2022/01/23 07:44:54;;;;;;;78.47;36.58;;;;;;;5.00;87.99;103128.03;5033713;28;20493;-67
2022/01/23 07:47:41;;;;;;;82.53;37.78;;;;;;;5.04;87.89;103132.28;5061368;28;20520;-67
2022/01/23 07:50:28;;;;;;;73.53;36.08;;;;;;;5.09;87.50;103132.09;5052251;28;20144;-67
2022/01/23 07:53:14;;;;;;;79.82;35.70;;;;;;;5.05;87.48;103130.50;5053378;28;20132;-67
2022/01/23 07:55:47;;;;;;;85.07;38.25;;;;;;;5.12;87.67;103134.59;5053474;28;20079;-67
2022/01/23 07:58:33;;;;;;;79.43;36.28;;;;;;;5.15;87.61;103137.97;5051675;28;20045;-67
2022/01/23 08:01:12;;;;;;;81.97;36.22;;;;;;;5.11;87.93;103140.78;5053049;28;20041;-67
2022/01/23 08:03:59;;;;;;;78.32;36.40;;;;;;;5.13;87.25;103138.94;5051046;28;20047;-68
2022/01/23 08:06:31;;;;;;;92.70;39.10;;;;;;;5.12;87.31;103148.59;5051854;28;20144;-67
2022/01/23 08:09:18;;;;;;;79.45;37.65;;;;;;;5.11;87.60;103153.94;5052791;28;20124;-67
2022/01/23 08:11:45;;;;;;;84.78;38.55;;;;;;;5.10;87.70;103157.50;5051927;28;20041;-67
2022/01/23 08:14:11;;;;;;;84.68;37.40;;;;;;;5.05;87.51;103164.69;5053380;28;20045;-67
2022/01/23 08:16:38;;;;;;;89.30;38.60;;;;;;;5.04;87.95;103153.31;5053224;28;20120;-67
2022/01/23 08:19:05;;;;;;;86.60;40.05;;;;;;;5.07;87.79;103158.44;5051900;28;20049;-67
2022/01/23 08:21:33;;;;;;;87.95;38.97;;;;;;;5.09;87.47;103161.03;5052124;28;20049;-67
2022/01/23 08:23:59;;;;;;;89.97;38.08;;;;;;;4.96;87.34;103164.13;5049465;28;20095;-67
2022/01/23 08:26:26;;;;;;;82.85;35.97;;;;;;;5.02;87.66;103154.28;5052954;28;20048;-67
2022/01/23 08:28:53;;;;;;;86.18;37.47;;;;;;;5.18;86.60;103160.66;5052481;28;20044;-68
2022/01/23 08:31:19;;;;;;;91.35;39.47;;;;;;;5.10;87.24;103157.50;5051405;28;20037;-67
2022/01/23 08:33:46;;;;;;;85.38;37.65;;;;;;;5.17;88.19;103169.50;5051210;28;20492;-67
2022/01/23 08:36:13;;;;;;;83.97;37.83;;;;;;;5.14;87.54;103167.81;5051475;28;20550;-67
2022/01/23 08:38:40;;;;;;;90.78;37.45;;;;;;;5.00;88.10;103164.88;5052871;28;20044;-67
2022/01/23 08:43:54;;;;;;;89.25;38.95;;;;;;;5.13;87.53;103168.75;5052555;28;20041;-68
2022/01/23 08:46:20;;;;;;;87.10;37.90;;;;;;;5.19;86.78;103173.78;5052485;28;20098;-67
2022/01/23 08:48:47;;;;;;;84.13;38.45;;;;;;;5.15;86.86;103171.34;5052330;28;20041;-67
2022/01/23 08:51:14;;;;;;;87.85;38.45;;;;;;;5.23;87.11;103174.50;5034554;28;20052;-68
2022/01/23 08:53:41;;;;;;;87.65;38.45;;;;;;;5.22;87.59;103179.84;5051409;28;20123;-68
2022/01/23 08:56:08;;;;;;;88.22;38.45;;;;;;;5.25;87.34;103188.47;5052862;28;20053;-67
2022/01/23 08:58:34;;;;;;;81.85;38.50;;;;;;;5.18;87.36;103187.88;5039530;28;20069;-68
2022/01/23 09:01:01;;;;;;;86.82;40.38;;;;;;;5.18;87.88;103186.97;5040444;28;20405;-68
2022/01/23 09:03:28;;;;;;;99.20;40.30;;;;;;;5.21;87.95;103194.78;5050434;28;20052;-67
2022/01/23 09:05:55;;;;;;;93.43;41.17;;;;;;;5.23;87.45;103192.09;5051042;28;20053;-67
2022/01/23 09:08:22;;;;;;;88.03;39.17;;;;;;;5.25;87.35;103195.50;5052579;28;20045;-67
2022/01/23 09:10:56;;;;;;;100.45;41.92;;;;;;;5.27;86.39;103188.41;5050778;28;20044;-68
2022/01/23 09:14:06;;;;;;;88.60;39.13;;;;;;;5.10;87.42;103183.81;5051340;28;20045;-67
2022/01/23 09:16:11;;;;;;;92.00;39.83;;;;;;;5.08;87.60;103183.00;5050979;28;20096;-67
2022/01/23 09:18:38;;;;;;;86.10;37.72;;;;;;;5.06;88.41;103180.44;5052004;28;20073;-67
2022/01/23 09:21:04;;;;;;;96.53;40.38;;;;;;;5.09;88.17;103185.56;5051850;28;20488;-67
2022/01/23 09:23:32;;;;;;;90.55;39.80;;;;;;;5.22;88.04;103178.06;5052145;28;20045;-67
2022/01/23 09:26:00;;;;;;;93.78;40.17;;;;;;;5.22;87.58;103180.72;5034524;28;20057;-67
2022/01/23 09:28:32;;;;;;;95.40;39.90;;;;;;;5.35;86.98;103181.09;5052051;28;20037;-67
2022/01/23 09:31:00;;;;;;;88.25;38.92;;;;;;;5.32;87.11;103181.19;5049518;28;20045;-68
2022/01/23 09:33:28;;;;;;;98.93;39.63;;;;;;;5.26;87.17;103182.28;5052021;28;20049;-67
2022/01/23 09:35:55;;;;;;;87.13;39.15;;;;;;;5.30;86.82;103177.78;5050666;28;20144;-68
2022/01/23 09:38:22;;;;;;;96.57;39.75;;;;;;;5.37;86.59;103181.88;5055754;28;20094;-67
2022/01/23 09:40:54;;;;;;;93.68;39.15;;;;;;;5.30;86.94;103183.03;5055852;28;20040;-67
2022/01/23 09:43:22;;;;;;;95.00;39.17;;;;;;;5.28;87.36;103180.47;5054756;28;20049;-67
2022/01/23 09:45:52;;;;;;;93.60;40.72;;;;;;;5.28;87.57;103183.09;5070903;28;20048;-67
2022/01/23 09:48:21;;;;;;;94.13;39.75;;;;;;;5.34;87.70;103193.38;5054515;28;20127;-67
2022/01/23 09:50:51;;;;;;;92.03;37.90;;;;;;;5.36;87.50;103198.56;5055277;28;20119;-67
2022/01/23 09:53:22;;;;;;;89.00;39.75;;;;;;;5.35;86.80;103202.16;5055565;28;20048;-67
2022/01/23 09:55:53;;;;;;;89.60;39.65;;;;;;;5.41;87.32;103201.03;5055497;28;20037;-68
2022/01/23 09:58:21;;;;;;;93.60;39.83;;;;;;;5.46;87.12;103204.34;5055648;28;20075;-67
2022/01/23 10:00:49;;;;;;;93.10;39.70;;;;;;;5.47;86.91;103200.78;5053959;28;20039;-67
2022/01/23 10:03:19;;;;;;;100.18;40.67;;;;;;;5.54;86.82;103204.91;5054483;28;20139;-67
2022/01/23 10:05:49;;;;;;;89.65;38.42;;;;;;;5.45;87.11;103208.75;5055208;28;20399;-67
2022/01/23 10:08:17;;;;;;;94.38;39.67;;;;;;;5.45;87.61;103200.00;5055436;28;20464;-67
2022/01/23 10:10:51;;;;;;;98.25;40.90;;;;;;;5.45;87.49;103195.59;5054197;28;20069;-68
2022/01/23 10:13:22;;;;;;;89.90;40.38;;;;;;;5.44;87.61;103191.25;5055285;28;20045;-67
2022/01/23 10:15:49;;;;;;;96.15;40.00;;;;;;;5.43;87.48;103196.56;5053825;28;20048;-67
2022/01/23 10:18:17;;;;;;;90.82;39.67;;;;;;;5.45;87.90;103200.00;5055630;28;20098;-67
2022/01/23 10:20:46;;;;;;;98.65;42.60;;;;;;;5.51;86.97;103200.63;5054968;28;20041;-67
2022/01/23 10:23:13;;;;;;;101.40;41.50;;;;;;;5.58;86.93;103203.84;5050850;28;20186;-67
2022/01/23 10:25:43;;;;;;;95.40;42.03;;;;;;;5.56;87.47;103200.41;5053280;28;20048;-67
2022/01/23 10:28:21;;;;;;;93.35;40.63;;;;;;;5.55;86.58;103202.22;5054756;28;20081;-67
2022/01/23 10:30:54;;;;;;;96.18;42.17;;;;;;;5.53;87.87;103211.06;5051861;28;20063;-67
2022/01/23 10:33:32;;;;;;;100.10;41.85;;;;;;;5.55;87.40;103202.22;5054675;28;20563;-67
2022/01/23 10:39:01;;;;;;;91.80;40.08;;;;;;;5.55;86.83;103206.63;5113667;27;20121;-67
2022/01/23 10:41:46;;;;;;;97.15;40.88;;;;;;;5.55;87.13;103204.00;5092383;28;20044;-67
2022/01/23 10:49:59;;;;;;;103.10;40.85;;;;;;;5.63;87.56;103198.41;5076016;28;20134;-67
2022/01/23 10:52:30;;;;;;;95.05;43.00;;;;;;;5.63;87.33;103199.25;5110364;28;20126;-67
2022/01/23 10:54:57;;;;;;;96.87;42.00;;;;;;;5.66;86.82;103204.41;5103164;28;20040;-67
2022/01/23 10:57:32;;;;;;;99.40;42.97;;;;;;;5.73;87.02;103203.25;5082753;28;20355;-66
2022/01/23 11:00:02;;;;;;;99.05;42.10;;;;;;;5.77;86.46;103201.34;5087551;28;20040;-67
2022/01/23 11:02:29;;;;;;;98.60;41.50;;;;;;;5.72;85.88;103196.25;5075310;28;20044;-68
2022/01/23 11:05:00;;;;;;;93.20;41.17;;;;;;;5.70;86.33;103191.97;5077832;28;20048;-67
2022/01/23 11:07:29;;;;;;;100.55;42.15;;;;;;;5.70;86.18;103195.47;5092078;28;20381;-67
2022/01/23 11:10:01;;;;;;;112.18;44.38;;;;;;;5.72;86.13;103192.78;5075669;28;20123;-67
2022/01/23 11:18:12;;;;;;;109.95;45.58;;;;;;;5.76;85.85;103191.72;5109623;28;20047;-67
2022/01/23 11:20:46;;;;;;;107.13;44.92;;;;;;;5.79;85.57;103188.97;5078337;28;20048;-67
2022/01/23 11:23:27;;;;;;;115.85;49.10;;;;;;;5.77;85.65;103185.53;5107458;28;20100;-67
2022/01/23 11:28:37;;;;;;;99.78;42.35;;;;;;;5.79;85.54;103174.94;5131130;27;20165;-69
2022/01/23 11:31:08;;;;;;;103.15;45.10;;;;;;;5.74;85.43;103172.50;5129831;28;20077;-68
2022/01/23 11:33:35;;;;;;;102.72;44.72;;;;;;;5.80;85.38;103169.59;5129292;27;20047;-69
2022/01/23 11:36:03;;;;;;;95.97;44.03;;;;;;;5.80;85.52;103166.09;5130850;27;20096;-69
2022/01/23 11:38:30;;;;;;;100.22;42.80;;;;;;;5.78;85.50;103158.25;5131076;27;20039;-69
2022/01/23 11:54:49;;;;;;;97.32;39.50;;;;;;;6.07;85.23;103164.13;5131110;27;20061;-69
2022/01/23 11:57:39;;;;;;;97.78;41.90;;;;;;;6.00;85.70;103160.88;5130254;28;20047;-69
2022/01/23 12:00:18;;;;;;;97.25;41.13;;;;;;;5.92;86.04;103161.19;5130764;27;20043;-69
2022/01/23 12:03:10;;;;;;;90.32;38.67;;;;;;;6.02;85.24;103160.81;5129859;28;20486;-69
2022/01/23 12:05:41;;;;;;;88.95;39.08;;;;;;;6.00;85.54;103160.03;5128814;27;20511;-69
2022/01/23 12:08:30;;;;;;;86.50;39.42;;;;;;;6.10;84.04;103159.59;5130924;27;20502;-69
2022/01/23 12:16:59;;;;;;;89.13;39.28;;;;;;;5.99;84.50;103156.56;5090556;27;20352;-69
2022/01/23 12:19:29;;;;;;;92.10;39.95;;;;;;;6.00;85.81;103152.13;5087720;28;20499;-69
2022/01/23 12:21:59;;;;;;;87.53;39.20;;;;;;;5.89;85.76;103128.84;5066979;28;20097;-69
2022/01/23 12:24:26;;;;;;;101.13;41.20;;;;;;;5.90;85.76;103136.69;5068755;28;20040;-68
2022/01/23 12:27:17;;;;;;;87.18;39.20;;;;;;;6.00;85.48;103139.81;5071648;28;20078;-68
2022/01/23 12:29:44;;;;;;;78.05;37.25;;;;;;;6.02;84.42;103145.00;5088244;28;20080;-68
2022/01/23 12:32:17;;;;;;;84.70;38.63;;;;;;;6.02;84.87;103131.84;5087263;28;20044;-68
2022/01/23 12:34:48;;;;;;;89.50;37.97;;;;;;;6.09;84.79;103139.44;5088681;28;20543;-68
2022/01/23 12:37:16;;;;;;;93.97;39.35;;;;;;;6.17;84.41;103133.81;5088193;28;20520;-67
2022/01/23 12:39:43;;;;;;;90.93;39.00;;;;;;;6.21;83.70;103134.56;5087819;28;20089;-68
2022/01/23 12:42:10;;;;;;;84.60;37.90;;;;;;;6.13;84.37;103132.22;5068671;28;20063;-68
2022/01/23 12:44:39;;;;;;;88.05;38.65;;;;;;;6.22;83.49;103128.34;5071384;28;20052;-68
2022/01/23 12:47:18;;;;;;;90.20;40.10;;;;;;;6.12;83.50;103127.91;5068507;28;20110;-68
2022/01/23 12:49:49;;;;;;;96.05;39.03;;;;;;;6.05;84.35;103121.19;5068855;28;20485;-68
2022/01/23 12:52:19;;;;;;;93.37;40.43;;;;;;;6.05;83.84;103124.66;5068171;28;20052;-68
2022/01/23 12:54:52;;;;;;;89.80;38.40;;;;;;;6.05;83.78;103123.81;5069358;28;20374;-68
2022/01/23 12:57:24;;;;;;;91.72;39.05;;;;;;;6.03;84.70;103120.38;5071143;28;20051;-68
2022/01/23 12:59:54;;;;;;;96.93;40.75;;;;;;;5.96;84.77;103122.41;5085049;28;20045;-68
2022/01/23 13:02:23;;;;;;;90.18;39.95;;;;;;;6.07;84.43;103121.97;5068869;28;20055;-68
2022/01/23 13:04:53;;;;;;;86.35;39.25;;;;;;;6.06;84.16;103117.63;5069366;28;20041;-68
2022/01/23 13:07:31;;;;;;;93.60;40.00;;;;;;;6.11;84.66;103116.50;5085014;28;20045;-68
2022/01/23 13:10:10;;;;;;;90.55;39.30;;;;;;;6.12;85.19;103114.72;5068850;28;20076;-69
2022/01/23 13:15:22;;;;;;;88.43;38.70;;;;;;;6.13;85.11;103114.66;5067724;28;20491;-68
2022/01/23 13:32:14;;;;;;;86.28;37.25;;;;;;;6.26;83.87;103109.69;5108506;28;20040;-69
2022/01/23 13:34:49;;;;;;;85.32;36.38;;;;;;;6.26;84.01;103107.06;5072705;28;20044;-70
2022/01/23 13:37:19;;;;;;;76.80;36.28;;;;;;;6.30;83.96;103106.00;5091989;28;20036;-68
2022/01/23 13:39:56;;;;;;;81.57;34.05;;;;;;;6.29;82.80;103106.94;5109558;28;20063;-68
2022/01/23 13:48:46;;;;;;;86.97;35.70;;;;;;;6.28;83.34;103104.38;5099330;28;20504;-69
2022/01/23 13:59:53;;;;;;;81.03;32.78;;;;;;;6.32;82.30;103101.50;5073467;28;20530;-69
2022/01/23 14:05:19;;;;;;;75.28;33.10;;;;;;;6.19;82.83;103102.13;5067957;28;20418;-69
2022/01/23 14:07:50;;;;;;;78.57;34.88;;;;;;;6.19;82.62;103102.13;5048432;28;20453;-69
2022/01/23 14:10:20;;;;;;;81.90;34.28;;;;;;;6.22;82.92;103102.84;5069742;28;20060;-69
2022/01/23 14:12:50;;;;;;;66.95;31.23;;;;;;;6.25;82.78;103102.69;5069336;28;20128;-69
2022/01/23 14:15:21;;;;;;;78.90;34.55;;;;;;;6.30;82.45;103102.50;5069488;28;20094;-69
2022/01/23 14:18:08;;;;;;;72.22;32.05;;;;;;;6.27;82.29;103100.00;5069571;28;20040;-69
2022/01/23 14:20:39;;;;;;;74.03;32.78;;;;;;;6.20;83.07;103098.56;5068940;28;20064;-69
2022/01/23 14:23:17;;;;;;;79.00;33.97;;;;;;;6.26;82.96;103095.66;5061861;28;20037;-69
2022/01/23 14:25:54;;;;;;;76.38;34.78;;;;;;;6.22;83.48;103104.63;5063695;28;20654;-69
2022/01/23 14:28:24;;;;;;;79.70;35.03;;;;;;;6.19;84.02;103096.88;5048052;28;20057;-69
2022/01/23 14:30:54;;;;;;;91.07;36.60;;;;;;;6.19;83.79;103099.50;5050569;28;20060;-68
2022/01/23 14:33:34;;;;;;;72.20;32.50;;;;;;;6.27;83.09;103098.22;5067526;28;20507;-69
2022/01/23 14:36:17;;;;;;;80.13;33.10;;;;;;;6.19;83.37;103096.88;5067674;28;20047;-68
2022/01/23 14:39:05;;;;;;;77.03;33.35;;;;;;;6.18;83.26;103092.50;5068776;28;20517;-69
2022/01/23 14:41:37;;;;;;;84.57;33.50;;;;;;;6.16;83.54;103095.19;5067761;28;20048;-68
2022/01/23 14:44:25;;;;;;;74.00;34.97;;;;;;;6.33;82.90;103097.06;5068648;28;20044;-68
2022/01/23 14:46:54;;;;;;;81.13;32.85;;;;;;;6.24;83.06;103100.13;5067985;28;20044;-69
2022/01/23 14:49:24;;;;;;;83.82;36.35;;;;;;;6.25;83.19;103099.22;5067628;28;20032;-68
2022/01/23 14:51:53;;;;;;;86.38;36.05;;;;;;;6.27;82.98;103094.72;5068700;28;20040;-68
2022/01/23 14:54:25;;;;;;;79.43;34.13;;;;;;;6.27;83.48;103094.72;5062685;28;20047;-68
2022/01/23 14:56:52;;;;;;;82.13;35.92;;;;;;;6.18;83.88;103097.78;5068823;28;20052;-68